createdAt,value
2023-05-19T00:01:00.498Z,1.42
2023-05-19T00:03:27.294Z,0.98
2023-05-19T00:05:54.197Z,1.67
2023-05-19T00:08:23.831Z,0.77
2023-05-19T00:10:50.876Z,0.50
2023-05-19T00:13:17.609Z,0.75
2023-05-19T00:15:44.499Z,0.65
2023-05-19T00:18:13.968Z,0.35
2023-05-19T00:20:41.331Z,1.02
2023-05-19T00:23:08.464Z,0.75
2023-05-19T00:25:35.001Z,0.70
2023-05-19T00:28:02.509Z,0.73
2023-05-19T00:30:30.261Z,0.60
2023-05-19T00:32:57.062Z,0.65
2023-05-19T00:35:24.227Z,0.73
2023-05-19T00:37:50.809Z,1.02
2023-05-19T00:40:17.457Z,0.82
2023-05-19T00:42:44.010Z,1.08
2023-05-19T00:45:10.676Z,1.08
2023-05-19T00:47:37.300Z,0.55
2023-05-19T00:50:03.960Z,0.73
2023-05-19T00:52:30.757Z,1.65
2023-05-19T00:54:57.307Z,1.20
2023-05-19T00:57:24.094Z,0.98
2023-05-19T00:59:50.820Z,0.80
2023-05-19T01:02:18.054Z,1.45
2023-05-19T01:04:45.091Z,0.75
2023-05-19T01:07:12.747Z,0.70
2023-05-19T01:09:40.727Z,1.30
2023-05-19T01:12:08.689Z,0.65
2023-05-19T01:14:35.427Z,1.00
2023-05-19T01:17:15.081Z,0.63
2023-05-19T01:19:46.810Z,0.88
2023-05-19T01:22:42.692Z,0.88
2023-05-19T01:25:32.268Z,1.05
2023-05-19T01:28:19.400Z,0.95
2023-05-19T01:30:49.039Z,1.13
2023-05-19T01:33:17.746Z,1.00
2023-05-19T01:35:45.818Z,0.57
2023-05-19T01:38:14.642Z,1.65
2023-05-19T01:40:41.959Z,1.52
2023-05-19T01:43:10.911Z,0.88
2023-05-19T01:45:38.449Z,0.63
2023-05-19T01:48:07.231Z,0.70
2023-05-19T01:50:35.798Z,1.23
2023-05-19T01:53:02.393Z,0.82
2023-05-19T01:55:29.189Z,1.00
2023-05-19T01:58:20.901Z,0.90
2023-05-19T02:00:57.899Z,0.65
2023-05-19T02:03:48.046Z,0.98
2023-05-19T02:06:27.149Z,1.15
2023-05-19T02:09:15.270Z,0.93
2023-05-19T02:12:01.073Z,1.23
2023-05-19T02:14:35.355Z,1.10
2023-05-19T02:17:04.876Z,1.30
2023-05-19T02:19:35.435Z,0.68
2023-05-19T02:22:01.995Z,1.17
2023-05-19T02:24:28.586Z,1.00
2023-05-19T02:26:55.375Z,0.63
2023-05-19T02:29:21.984Z,1.08
2023-05-19T02:31:50.916Z,0.60
2023-05-19T02:34:18.933Z,1.45
2023-05-19T02:36:45.626Z,1.13
2023-05-19T02:39:12.971Z,1.15
2023-05-19T02:41:39.478Z,0.93
2023-05-19T02:44:06.153Z,0.93
2023-05-19T02:46:32.872Z,1.48
2023-05-19T02:48:59.925Z,1.88
2023-05-19T02:51:27.384Z,0.77
2023-05-19T02:53:53.916Z,0.90
2023-05-19T02:56:21.612Z,0.93
2023-05-19T02:58:48.162Z,1.02
2023-05-19T03:01:14.939Z,1.10
2023-05-19T03:03:41.525Z,1.10
2023-05-19T03:06:08.756Z,1.73
2023-05-19T03:08:36.209Z,1.27
2023-05-19T03:11:03.384Z,1.40
2023-05-19T03:13:29.991Z,1.17
2023-05-19T03:15:59.160Z,1.08
2023-05-19T03:18:28.813Z,1.13
2023-05-19T03:20:55.638Z,1.00
2023-05-19T03:23:22.398Z,1.02
2023-05-19T03:25:48.956Z,0.90
2023-05-19T03:28:17.210Z,1.20
2023-05-19T03:30:43.857Z,2.17
2023-05-19T03:33:17.927Z,0.90
2023-05-19T03:35:46.801Z,1.38
2023-05-19T03:38:14.106Z,1.50
2023-05-19T03:40:47.902Z,1.30
2023-05-19T03:43:16.013Z,1.45
2023-05-19T03:45:47.407Z,0.82
2023-05-19T03:48:32.456Z,1.55
2023-05-19T03:51:29.911Z,1.05
2023-05-19T03:54:03.200Z,1.10
2023-05-19T03:56:29.933Z,1.58
2023-05-19T03:58:56.419Z,1.45
2023-05-19T04:01:22.963Z,1.45
2023-05-19T04:03:51.571Z,1.33
2023-05-19T04:06:19.095Z,1.55
2023-05-19T04:08:45.700Z,1.25
2023-05-19T04:11:12.889Z,1.42
2023-05-19T04:13:39.410Z,1.63
2023-05-19T04:16:06.537Z,1.40
2023-05-19T04:18:33.168Z,1.30
2023-05-19T04:20:59.720Z,1.63
2023-05-19T04:23:26.360Z,1.30
2023-05-19T04:25:54.228Z,1.13
2023-05-19T04:28:23.908Z,1.15
2023-05-19T04:30:51.511Z,1.20
2023-05-19T04:33:19.953Z,1.60
2023-05-19T04:35:46.408Z,1.48
2023-05-19T04:38:14.215Z,1.67
2023-05-19T04:40:42.197Z,1.67
2023-05-19T04:43:09.472Z,1.77
2023-05-19T04:45:37.817Z,1.45
2023-05-19T04:48:05.446Z,1.40
2023-05-19T04:50:34.287Z,2.80
2023-05-19T04:53:01.004Z,1.23
2023-05-19T04:55:27.713Z,2.20
2023-05-19T04:57:54.318Z,2.67
2023-05-19T05:00:21.990Z,2.20
2023-05-19T05:02:59.007Z,1.85
2023-05-19T05:05:28.265Z,1.67
2023-05-19T05:07:55.097Z,1.58
2023-05-19T05:10:23.507Z,1.80
2023-05-19T05:12:51.569Z,1.80
2023-05-19T05:15:18.585Z,3.33
2023-05-19T05:17:52.437Z,1.42
2023-05-19T05:20:20.931Z,2.00
2023-05-19T05:22:48.020Z,1.77
2023-05-19T05:25:16.350Z,1.88
2023-05-19T05:27:45.207Z,1.63
2023-05-19T05:30:12.978Z,2.20
2023-05-19T05:32:42.504Z,1.83
2023-05-19T05:35:18.214Z,2.22
2023-05-19T05:37:44.793Z,2.17
2023-05-19T05:40:11.892Z,2.20
2023-05-19T05:42:42.388Z,1.33
2023-05-19T05:45:11.780Z,2.22
2023-05-19T05:47:39.991Z,2.00
2023-05-19T05:50:09.567Z,2.40
2023-05-19T05:52:37.376Z,2.00
2023-05-19T05:55:05.352Z,2.15
2023-05-19T05:57:35.347Z,2.35
2023-05-19T06:00:03.193Z,1.63
2023-05-19T06:02:31.425Z,1.65
2023-05-19T06:04:58.534Z,2.08
2023-05-19T06:07:27.695Z,2.05
2023-05-19T06:09:54.280Z,2.53
2023-05-19T06:12:20.858Z,2.25
2023-05-19T06:14:49.314Z,2.15
2023-05-19T06:17:46.638Z,1.88
2023-05-19T06:20:13.829Z,2.03
2023-05-19T06:22:40.649Z,2.10
2023-05-19T06:25:08.983Z,2.08
2023-05-19T06:27:36.233Z,1.92
2023-05-19T06:30:04.090Z,1.80
2023-05-19T06:32:38.474Z,1.83
2023-05-19T06:35:07.200Z,1.90
2023-05-19T06:37:39.864Z,2.17
2023-05-19T06:40:10.602Z,2.22
2023-05-19T06:42:38.872Z,2.00
2023-05-19T06:45:16.247Z,2.38
2023-05-19T06:47:45.069Z,2.22
2023-05-19T06:50:11.819Z,2.15
2023-05-19T06:52:41.418Z,2.17
2023-05-19T06:55:08.216Z,2.50
2023-05-19T06:57:37.174Z,2.00
2023-05-19T07:00:05.792Z,1.92
2023-05-19T07:02:32.523Z,2.15
2023-05-19T07:04:59.274Z,2.13
2023-05-19T07:07:26.747Z,2.40
2023-05-19T07:09:56.240Z,1.63
2023-05-19T07:12:23.444Z,2.35
2023-05-19T07:14:50.742Z,1.77
2023-05-19T07:17:17.778Z,1.55
2023-05-19T07:19:45.607Z,1.65
2023-05-19T07:22:12.398Z,1.40
2023-05-19T07:24:39.063Z,1.23
2023-05-19T07:27:05.732Z,2.13
2023-05-19T07:29:32.388Z,1.88
2023-05-19T07:31:58.968Z,1.70
2023-05-19T07:34:27.283Z,0.93
2023-05-19T07:36:53.888Z,1.25
2023-05-19T07:39:20.932Z,0.98
2023-05-19T07:41:52.717Z,1.17
2023-05-19T07:44:19.392Z,0.98
2023-05-19T07:46:45.992Z,1.15
2023-05-19T07:49:12.593Z,0.98
2023-05-19T07:51:41.825Z,1.63
2023-05-19T07:54:08.821Z,0.95
2023-05-19T07:56:35.551Z,1.13
2023-05-19T07:59:03.351Z,1.00
2023-05-19T08:01:31.223Z,0.80
2023-05-19T08:03:58.808Z,0.60
2023-05-19T08:06:25.782Z,1.17
2023-05-19T08:08:54.160Z,0.60
2023-05-19T08:11:21.474Z,0.60
2023-05-19T08:13:49.513Z,0.30
2023-05-19T08:16:16.525Z,1.08
2023-05-19T08:18:43.560Z,0.60
2023-05-19T08:21:10.083Z,0.93
2023-05-19T08:23:37.428Z,0.60
2023-05-19T08:26:04.236Z,0.32
2023-05-19T08:28:30.875Z,0.43
2023-05-19T08:31:00.455Z,0.90
2023-05-19T08:33:27.060Z,0.70
2023-05-19T08:35:55.394Z,0.40
2023-05-19T08:38:22.032Z,0.40
2023-05-19T08:40:48.768Z,0.25
2023-05-19T08:43:15.432Z,1.02
2023-05-19T08:45:48.119Z,1.05
2023-05-19T08:48:18.048Z,0.38
2023-05-19T08:51:16.791Z,0.20
2023-05-19T08:53:50.414Z,0.52
2023-05-19T08:56:24.785Z,0.32
2023-05-19T08:58:51.692Z,0.38
2023-05-19T09:01:20.020Z,0.32
2023-05-19T09:03:52.325Z,0.32
2023-05-19T09:06:18.852Z,0.40
2023-05-19T09:08:47.030Z,0.28
2023-05-19T09:11:15.051Z,1.40
2023-05-19T09:13:42.122Z,0.30
2023-05-19T09:16:08.748Z,0.35
2023-05-19T09:18:39.021Z,0.55
2023-05-19T09:21:07.164Z,0.80
2023-05-19T09:23:34.057Z,0.55
2023-05-19T09:26:08.391Z,0.40
2023-05-19T09:28:36.656Z,0.40
2023-05-19T09:31:10.205Z,0.40
2023-05-19T09:33:45.626Z,0.40
2023-05-19T09:36:12.711Z,0.80
2023-05-19T09:38:39.906Z,0.73
2023-05-19T09:41:08.813Z,0.70
2023-05-19T09:43:35.485Z,0.35
2023-05-19T09:46:14.582Z,0.98
2023-05-19T09:48:41.577Z,1.52
2023-05-19T09:51:10.223Z,0.40
2023-05-19T09:53:36.907Z,0.60
2023-05-19T09:56:04.039Z,0.43
2023-05-19T09:59:20.025Z,0.50
2023-05-19T10:01:47.265Z,0.50
2023-05-19T10:04:15.604Z,0.60
2023-05-19T10:06:43.200Z,0.50
2023-05-19T10:09:11.610Z,0.60
2023-05-19T10:11:39.004Z,0.65
2023-05-19T10:14:06.239Z,0.47
2023-05-19T10:16:33.485Z,0.57
2023-05-19T10:19:00.790Z,0.73
2023-05-19T10:21:27.954Z,0.40
2023-05-19T10:23:55.193Z,0.20
2023-05-19T10:26:23.078Z,0.77
2023-05-19T10:28:57.456Z,0.50
2023-05-19T10:31:24.927Z,0.50
2023-05-19T10:34:00.708Z,1.05
2023-05-19T10:36:51.347Z,0.43
2023-05-19T10:39:24.888Z,0.50
2023-05-19T10:42:10.065Z,0.70
2023-05-19T10:45:11.622Z,0.77
2023-05-19T10:47:41.159Z,0.73
2023-05-19T10:50:08.534Z,0.35
2023-05-19T10:52:39.213Z,0.47
2023-05-19T10:55:15.687Z,0.50
2023-05-19T10:58:00.475Z,0.52
2023-05-19T11:00:28.186Z,0.45
2023-05-19T11:03:13.804Z,0.32
2023-05-19T11:05:40.652Z,0.32
2023-05-19T11:08:11.577Z,0.50
2023-05-19T11:10:44.236Z,0.40
2023-05-19T11:13:19.441Z,0.50
2023-05-19T11:15:45.973Z,0.28
2023-05-19T11:18:15.903Z,0.40
2023-05-19T11:20:44.421Z,0.38
2023-05-19T11:23:18.031Z,0.52
2023-05-19T11:25:49.617Z,0.85
2023-05-19T11:28:19.454Z,0.52
2023-05-19T11:30:51.792Z,1.73
2023-05-19T11:33:20.103Z,0.32
2023-05-19T11:35:49.369Z,0.43
2023-05-19T11:38:18.469Z,0.40
2023-05-19T11:40:45.187Z,0.57
2023-05-19T11:43:11.693Z,0.57
2023-05-19T11:45:38.480Z,0.50
2023-05-19T11:48:30.083Z,0.50
2023-05-19T11:50:57.002Z,0.63
2023-05-19T11:53:23.900Z,0.57
2023-05-19T11:55:51.964Z,0.77
2023-05-19T11:58:26.046Z,0.22
2023-05-19T12:00:52.614Z,0.43
2023-05-19T12:03:22.110Z,0.28
2023-05-19T12:08:19.965Z,0.25
2023-05-19T12:10:50.834Z,0.52
2023-05-19T12:13:17.340Z,0.25
2023-05-19T12:15:45.904Z,0.90
2023-05-19T12:18:12.859Z,0.30
2023-05-19T12:20:39.527Z,0.40
2023-05-19T12:23:06.398Z,0.32
2023-05-19T12:25:33.422Z,0.30
2023-05-19T12:28:02.993Z,0.32
2023-05-19T12:30:30.927Z,0.45
2023-05-19T12:32:58.281Z,0.35
2023-05-19T12:35:29.794Z,0.30
2023-05-19T12:37:56.474Z,0.82
2023-05-19T12:40:23.219Z,0.30
2023-05-19T12:42:53.307Z,0.35
2023-05-19T12:45:23.387Z,0.47
2023-05-19T12:47:51.073Z,1.23
2023-05-19T12:50:17.967Z,0.65
2023-05-19T12:52:52.138Z,0.68
2023-05-19T12:55:20.959Z,1.27
2023-05-19T12:57:57.163Z,0.80
2023-05-19T13:00:32.632Z,0.63
2023-05-19T13:03:05.356Z,0.55
2023-05-19T13:05:40.606Z,0.60
2023-05-19T13:08:12.577Z,1.00
2023-05-19T13:10:41.197Z,0.80
2023-05-19T13:13:09.283Z,0.63
2023-05-19T13:15:39.307Z,1.45
2023-05-19T13:18:11.257Z,0.50
2023-05-19T13:20:40.470Z,0.82
2023-05-19T13:23:09.469Z,0.45
2023-05-19T13:25:36.543Z,0.47
2023-05-19T13:28:05.922Z,0.55
2023-05-19T13:30:38.190Z,0.45
2023-05-19T13:33:05.108Z,0.52
2023-05-19T13:35:37.931Z,0.90
2023-05-19T13:38:05.976Z,0.40
2023-05-19T13:40:35.576Z,0.38
2023-05-19T13:45:29.934Z,0.57
2023-05-19T13:47:57.074Z,1.20
2023-05-19T13:50:23.834Z,0.73
2023-05-19T13:52:50.526Z,0.70
2023-05-19T13:55:17.401Z,1.27
2023-05-19T13:57:44.860Z,0.30
2023-05-19T14:00:11.653Z,0.75
2023-05-19T14:02:41.057Z,0.52
2023-05-19T14:05:08.472Z,0.47
2023-05-19T14:07:35.597Z,0.30
2023-05-19T14:10:03.940Z,0.35
2023-05-19T14:12:41.525Z,0.47
2023-05-19T14:15:14.175Z,0.43
2023-05-19T14:17:40.755Z,0.35
2023-05-19T14:20:08.442Z,0.73
2023-05-19T14:22:34.981Z,0.63
2023-05-19T14:25:02.192Z,0.35
2023-05-19T14:27:28.687Z,0.32
2023-05-19T14:29:55.207Z,0.43
2023-05-19T14:32:22.358Z,0.40
2023-05-19T14:34:52.750Z,0.30
2023-05-19T14:37:19.921Z,0.38
2023-05-19T14:39:46.395Z,0.57
2023-05-19T14:42:12.935Z,0.30
2023-05-19T14:44:39.426Z,0.32
2023-05-19T14:47:07.362Z,0.77
2023-05-19T14:49:34.027Z,0.30
2023-05-19T14:52:00.670Z,0.32
2023-05-19T14:54:27.162Z,0.52
2023-05-19T14:56:53.709Z,0.60
2023-05-19T14:59:21.569Z,0.60
2023-05-19T15:01:48.185Z,0.45
2023-05-19T15:04:14.917Z,0.20
2023-05-19T15:06:41.617Z,0.40
2023-05-19T15:09:08.193Z,0.40
2023-05-19T15:11:34.747Z,0.30
2023-05-19T15:14:01.216Z,0.38
2023-05-19T15:16:27.733Z,0.60
2023-05-19T15:18:54.388Z,0.30
2023-05-19T15:21:21.008Z,0.63
2023-05-19T15:23:47.656Z,0.40
2023-05-19T15:26:14.245Z,0.50
2023-05-19T15:28:40.941Z,0.20
2023-05-19T15:31:07.494Z,0.40
2023-05-19T15:33:34.065Z,1.35
2023-05-19T15:36:00.650Z,1.65
2023-05-19T15:38:28.492Z,0.50
2023-05-19T15:40:56.489Z,0.45
2023-05-19T15:43:23.071Z,0.45
2023-05-19T15:45:52.108Z,0.43
2023-05-19T15:48:19.115Z,0.85
2023-05-19T15:50:45.771Z,0.55
2023-05-19T15:53:13.589Z,0.35
2023-05-19T15:55:41.354Z,0.50
2023-05-19T15:58:08.772Z,0.65
2023-05-19T16:00:35.689Z,0.38
2023-05-19T16:03:02.478Z,0.50
2023-05-19T16:05:29.100Z,0.45
2023-05-19T16:07:56.186Z,0.25
2023-05-19T16:10:22.689Z,0.40
2023-05-19T16:12:49.498Z,0.70
2023-05-19T16:15:16.083Z,0.52
2023-05-19T16:17:44.464Z,0.40
2023-05-19T16:20:11.497Z,0.45
2023-05-19T16:22:38.461Z,0.30
2023-05-19T16:25:05.624Z,0.98
2023-05-19T16:27:34.522Z,1.38
2023-05-19T16:30:02.477Z,0.40
2023-05-19T16:32:28.973Z,1.10
2023-05-19T16:34:55.494Z,0.47
2023-05-19T16:37:21.997Z,0.45
2023-05-19T16:39:48.594Z,0.30
2023-05-19T16:42:15.100Z,0.45
2023-05-19T16:44:43.193Z,0.52
2023-05-19T16:47:09.770Z,1.45
2023-05-19T16:49:36.312Z,0.35
2023-05-19T16:52:02.886Z,0.68
2023-05-19T16:54:29.357Z,0.70
2023-05-19T16:56:55.861Z,0.32
2023-05-19T16:59:32.185Z,0.40
2023-05-19T17:01:58.857Z,0.22
2023-05-19T17:04:26.201Z,0.50
2023-05-19T17:07:15.686Z,0.32
2023-05-19T17:09:48.653Z,0.45
2023-05-19T17:12:15.271Z,0.95
2023-05-19T17:14:43.495Z,0.43
2023-05-19T17:17:13.500Z,0.88
2023-05-19T17:19:40.178Z,0.50
2023-05-19T17:22:06.859Z,0.57
2023-05-19T17:24:45.903Z,0.70
2023-05-19T17:27:15.059Z,0.70
2023-05-19T17:29:41.747Z,1.10
2023-05-19T17:32:18.555Z,0.38
2023-05-19T17:34:45.239Z,0.50
2023-05-19T17:37:11.852Z,0.73
2023-05-19T17:39:38.529Z,0.40
2023-05-19T17:42:18.522Z,0.32
2023-05-19T17:44:45.147Z,0.38
2023-05-19T17:47:36.891Z,1.85
2023-05-19T17:50:06.133Z,0.65
2023-05-19T17:52:33.984Z,0.45
2023-05-19T17:55:00.894Z,0.35
2023-05-19T17:57:52.964Z,1.00
2023-05-19T18:00:28.792Z,0.35
2023-05-19T18:02:57.284Z,0.20
2023-05-19T18:05:24.426Z,0.57
2023-05-19T18:08:04.987Z,2.70
2023-05-19T18:10:35.974Z,0.57
2023-05-19T18:13:07.954Z,0.63
2023-05-19T18:15:36.062Z,0.30
2023-05-19T18:18:14.756Z,0.43
2023-05-19T18:20:44.708Z,1.08
2023-05-19T18:25:38.183Z,0.40
2023-05-19T18:28:04.988Z,0.68
2023-05-19T18:31:17.418Z,0.70
2023-05-19T18:33:44.363Z,0.50
2023-05-19T18:36:16.451Z,0.60
2023-05-19T18:38:43.150Z,0.73
2023-05-19T18:41:09.775Z,0.40
2023-05-19T18:43:39.504Z,0.38
2023-05-19T18:46:06.657Z,0.40
2023-05-19T18:48:33.515Z,0.43
2023-05-19T18:51:00.557Z,0.82
2023-05-19T18:53:27.264Z,0.40
2023-05-19T18:55:53.900Z,0.50
2023-05-19T18:58:46.124Z,1.48
2023-05-19T19:01:16.241Z,0.50
2023-05-19T19:03:43.711Z,0.50
2023-05-19T19:06:11.018Z,0.55
2023-05-19T19:08:39.243Z,0.45
2023-05-19T19:11:09.280Z,0.88
2023-05-19T19:13:36.274Z,0.50
2023-05-19T19:16:03.423Z,0.77
2023-05-19T19:18:30.145Z,0.52
2023-05-19T19:20:57.644Z,0.50
2023-05-19T19:23:24.477Z,0.50
2023-05-19T19:25:51.322Z,0.47
2023-05-19T19:28:17.994Z,0.43
2023-05-19T19:30:46.115Z,0.60
2023-05-19T19:33:12.743Z,0.35
2023-05-19T19:35:39.377Z,0.30
2023-05-19T19:38:31.155Z,0.30
2023-05-19T19:41:00.767Z,0.30
2023-05-19T19:43:27.393Z,0.43
2023-05-19T19:46:07.002Z,0.43
2023-05-19T19:49:01.936Z,0.35
2023-05-19T19:51:28.528Z,0.35
2023-05-19T19:53:55.368Z,1.25
2023-05-19T19:56:24.529Z,2.03
2023-05-19T19:58:51.234Z,0.60
2023-05-19T20:01:20.477Z,0.65
2023-05-19T20:03:47.985Z,0.28
2023-05-19T20:06:14.897Z,0.40
2023-05-19T20:08:41.523Z,0.77
2023-05-19T20:11:08.258Z,0.60
2023-05-19T20:13:34.826Z,0.55
2023-05-19T20:16:01.592Z,0.65
2023-05-19T20:18:29.675Z,0.55
2023-05-19T20:20:56.677Z,0.50
2023-05-19T20:23:23.316Z,0.57
2023-05-19T20:26:10.926Z,0.80
2023-05-19T20:28:38.948Z,0.52
2023-05-19T20:31:06.228Z,0.70
2023-05-19T20:33:32.870Z,1.05
2023-05-19T20:36:02.157Z,1.05
2023-05-19T20:38:31.178Z,0.98
2023-05-19T20:40:57.777Z,1.15
2023-05-19T20:43:24.357Z,0.98
2023-05-19T20:45:51.345Z,0.90
2023-05-19T20:48:17.933Z,1.10
2023-05-19T20:50:44.485Z,0.90
2023-05-19T20:53:11.305Z,0.63
2023-05-19T20:55:38.998Z,0.80
2023-05-19T20:58:06.130Z,0.95
2023-05-19T21:00:33.058Z,1.85
2023-05-19T21:03:00.048Z,1.02
2023-05-19T21:05:26.704Z,1.52
2023-05-19T21:07:53.457Z,1.30
2023-05-19T21:10:20.027Z,1.13
2023-05-19T21:12:46.925Z,1.30
2023-05-19T21:15:14.839Z,1.00
2023-05-19T21:17:41.575Z,0.98
2023-05-19T21:20:08.788Z,0.90
2023-05-19T21:22:35.867Z,1.35
2023-05-19T21:25:02.591Z,1.05
2023-05-19T21:27:29.144Z,1.52
2023-05-19T21:29:55.845Z,1.35
2023-05-19T21:32:22.544Z,1.67
2023-05-19T21:34:49.380Z,0.52
2023-05-19T21:37:40.642Z,1.40
2023-05-19T21:40:16.247Z,0.88
2023-05-19T21:42:42.857Z,1.08
2023-05-19T21:45:11.995Z,1.02
2023-05-19T21:47:45.080Z,0.95
2023-05-19T21:50:17.340Z,1.10
2023-05-19T21:52:43.945Z,1.10
2023-05-19T21:55:16.921Z,1.10
2023-05-19T21:57:43.469Z,1.23
2023-05-19T22:00:13.164Z,0.73
2023-05-19T22:02:40.516Z,1.67
2023-05-19T22:05:12.881Z,1.55
2023-05-19T22:07:39.555Z,0.82
2023-05-19T22:10:06.409Z,0.75
2023-05-19T22:12:33.162Z,1.10
2023-05-19T22:15:03.607Z,2.60
2023-05-19T22:17:30.222Z,0.57
2023-05-19T22:19:56.996Z,0.70
2023-05-19T22:22:23.732Z,1.77
2023-05-19T22:24:50.929Z,1.45
2023-05-19T22:27:17.598Z,0.73
2023-05-19T22:29:56.257Z,0.82
2023-05-19T22:32:22.815Z,2.13
2023-05-19T22:35:01.922Z,1.23
2023-05-19T22:40:19.762Z,1.30
2023-05-19T22:43:01.128Z,1.17
2023-05-19T22:45:27.765Z,1.13
2023-05-19T22:48:06.683Z,1.35
2023-05-19T22:50:33.446Z,0.95
2023-05-19T22:53:00.146Z,1.02
2023-05-19T22:55:29.391Z,1.23
2023-05-19T22:57:56.303Z,0.80
2023-05-19T23:00:31.539Z,1.05
2023-05-19T23:03:09.767Z,0.98
2023-05-19T23:05:36.506Z,0.80
2023-05-19T23:08:03.246Z,0.73
2023-05-19T23:10:29.796Z,0.80
2023-05-19T23:12:56.327Z,0.77
2023-05-19T23:15:26.907Z,0.95
2023-05-19T23:17:53.671Z,1.70
2023-05-19T23:20:20.231Z,1.33
2023-05-19T23:22:46.771Z,1.00
2023-05-19T23:25:14.714Z,1.40
2023-05-19T23:27:41.301Z,1.10
2023-05-19T23:30:08.462Z,1.05
2023-05-19T23:32:35.129Z,0.95
2023-05-19T23:35:16.575Z,1.05
2023-05-19T23:37:43.216Z,1.10
2023-05-19T23:40:10.253Z,0.80
2023-05-19T23:42:37.183Z,1.05
2023-05-19T23:45:04.605Z,1.17
2023-05-19T23:47:31.313Z,0.98
2023-05-19T23:49:57.852Z,2.15
2023-05-19T23:52:27.465Z,0.85
2023-05-19T23:54:54.179Z,1.48
2023-05-19T23:57:20.691Z,1.40
2023-05-19T23:59:47.367Z,1.38
